Time;durP1;ratioP1;P1;durP2;ratioP2;P2;SDS_P1;SDS_P2;PMS_P1;PMS_P2;Temp;Humidity;BMP_temperature;BMP_pressure;BME280_temperature;BME280_humidity;BME280_pressure;Samples;Min_cycle;Max_cycle;Signal;HPM_P1;HPM_P2
2022/03/18 00:01:12;;;;;;;;;19.00;17.00;;;;;10.82;51.88;103179.53;5058970;28;45684;-65
2022/03/18 00:03:37;;;;;;;;;16.75;15.00;;;;;10.79;51.82;103176.66;5058434;28;46778;-65
2022/03/18 00:06:03;;;;;;;;;17.00;17.00;;;;;10.79;51.52;103179.31;5055707;27;45451;-65
2022/03/18 00:08:28;;;;;;;;;22.75;17.75;;;;;10.38;51.80;103107.13;5050181;28;46303;-62
2022/03/18 00:10:56;;;;;;;;;24.50;18.50;;;;;10.73;51.52;103169.97;5053020;28;45625;-64
2022/03/18 00:13:21;;;;;;;;;22.25;19.50;;;;;10.67;51.99;103179.47;5050604;27;45636;-63
2022/03/18 00:15:46;;;;;;;;;21.25;16.50;;;;;10.76;51.64;103183.56;5055449;28;45414;-63
2022/03/18 00:18:12;;;;;;;;;22.75;18.00;;;;;10.73;51.58;103175.34;5051350;27;45958;-62
2022/03/18 00:20:37;;;;;;;;;23.25;17.50;;;;;10.60;52.00;103158.47;5051714;28;45649;-63
2022/03/18 00:23:03;;;;;;;;;18.75;15.50;;;;;10.68;51.95;103177.69;5049590;28;45651;-64
2022/03/18 00:25:29;;;;;;;;;23.25;18.75;;;;;10.64;52.03;103168.56;5049698;28;45513;-61
2022/03/18 00:27:55;;;;;;;;;29.75;21.00;;;;;10.57;51.87;103170.72;5048188;28;46233;-63
2022/03/18 00:30:20;;;;;;;;;21.25;19.00;;;;;10.48;51.58;103169.28;5008042;28;1134855;-62
2022/03/18 00:32:48;;;;;;;;;23.50;17.25;;;;;10.55;51.94;103178.63;5049179;28;45614;-64
2022/03/18 00:35:13;;;;;;;;;17.50;15.00;;;;;10.45;52.28;103179.78;5045294;28;45493;-65
2022/03/18 00:37:40;;;;;;;;;18.50;15.00;;;;;10.50;51.85;103188.09;5048045;27;45528;-63
2022/03/18 00:40:08;;;;;;;;;14.25;14.25;;;;;10.22;52.28;103145.25;5050160;28;46107;-63
2022/03/18 00:42:33;;;;;;;;;20.50;16.25;;;;;10.45;51.98;103192.22;5052295;28;45379;-63
2022/03/18 00:44:59;;;;;;;;;19.00;15.00;;;;;10.44;52.05;103194.00;5064991;27;45406;-61
2022/03/18 00:52:53;;;;;;;;;23.50;17.50;;;;;10.37;52.26;103197.06;5054710;28;45470;-64
2022/03/18 00:55:19;;;;;;;;;26.25;24.75;;;;;10.37;52.56;103199.72;5053796;27;45385;-64
2022/03/18 00:57:44;;;;;;;;;17.00;15.75;;;;;10.34;53.08;103191.50;5059953;27;45372;-63
2022/03/18 01:00:10;;;;;;;;;22.25;21.50;;;;;10.23;53.16;103190.78;5053876;27;45437;-64
2022/03/18 01:02:35;;;;;;;;;22.00;18.25;;;;;10.17;53.43;103194.78;5053825;28;45435;-63
2022/03/18 01:05:01;;;;;;;;;27.00;22.00;;;;;10.14;53.45;103195.47;5052822;27;45414;-62
2022/03/18 01:07:26;;;;;;;;;25.75;19.75;;;;;10.06;53.25;103189.59;5050783;28;46185;-63
2022/03/18 01:09:51;;;;;;;;;19.00;17.25;;;;;10.05;53.91;103193.13;5051975;28;45431;-61
2022/03/18 01:12:17;;;;;;;;;25.50;21.75;;;;;9.99;53.81;103186.44;5058583;28;45319;-64
2022/03/18 01:14:42;;;;;;;;;27.50;22.25;;;;;9.95;54.25;103196.00;5056260;27;45613;-62
2022/03/18 01:17:07;;;;;;;;;22.00;17.00;;;;;9.48;53.68;103126.91;5058674;28;46123;-64
2022/03/18 01:19:33;;;;;;;;;23.25;20.75;;;;;9.88;54.00;103197.31;5052545;27;45583;-63
2022/03/18 01:21:58;;;;;;;;;32.50;20.25;;;;;9.67;54.11;103156.72;5046906;28;45465;-63
2022/03/18 01:24:23;;;;;;;;;23.75;23.75;;;;;9.76;54.22;103181.34;5053582;28;45605;-63
2022/03/18 01:26:49;;;;;;;;;22.25;21.00;;;;;9.83;54.10;103184.44;5049777;28;45673;-62
2022/03/18 01:29:14;;;;;;;;;22.00;19.00;;;;;9.93;54.24;103213.63;5053320;27;45246;-64
2022/03/18 01:31:40;;;;;;;;;26.00;22.00;;;;;9.93;54.46;103210.97;5049867;28;45449;-63
2022/03/18 01:34:05;;;;;;;;;23.50;17.75;;;;;9.88;54.45;103205.31;5049387;28;45473;-62
2022/03/18 01:36:30;;;;;;;;;23.00;20.00;;;;;9.88;54.96;103208.00;5042169;28;45541;-64
2022/03/18 01:38:56;;;;;;;;;21.00;20.00;;;;;9.88;54.36;103209.72;5049262;28;45895;-62
2022/03/18 01:41:21;;;;;;;;;29.50;22.25;;;;;9.84;54.38;103205.91;5060584;28;45626;-64
2022/03/18 01:43:47;;;;;;;;;23.00;21.75;;;;;9.42;54.97;103130.09;5059833;28;45514;-62
2022/03/18 01:46:15;;;;;;;;;23.25;22.00;;;;;9.86;54.99;103211.38;5064440;28;45511;-64
2022/03/18 01:48:41;;;;;;;;;28.00;22.25;;;;;9.87;54.55;103210.56;5059644;27;45365;-64
2022/03/18 01:51:08;;;;;;;;;29.75;25.50;;;;;9.53;54.48;103150.41;5056200;28;45570;-64
2022/03/18 01:53:35;;;;;;;;;26.50;19.75;;;;;9.75;55.06;103189.25;5054691;28;45522;-62
2022/03/18 01:56:00;;;;;;;;;32.00;23.00;;;;;9.88;55.23;103212.41;5055866;27;45655;-63
2022/03/18 01:58:26;;;;;;;;;25.25;20.25;;;;;9.95;54.67;103226.28;5054442;27;45610;-61
2022/03/18 02:00:51;;;;;;;;;22.25;20.75;;;;;9.90;54.36;103219.69;5053430;28;45496;-63
2022/03/18 02:03:17;;;;;;;;;22.25;21.75;;;;;9.90;54.97;103221.41;5054536;27;45548;-64
2022/03/18 02:05:43;;;;;;;;;19.75;17.50;;;;;9.89;54.64;103212.50;5053599;28;46111;-66
2022/03/18 02:08:09;;;;;;;;;22.50;22.00;;;;;9.63;55.04;103162.66;5048505;28;45571;-63
2022/03/18 02:10:36;;;;;;;;;27.25;23.00;;;;;9.90;54.60;103222.38;5054736;28;45515;-63
2022/03/18 02:13:02;;;;;;;;;23.75;22.00;;;;;9.91;55.25;103215.28;5053964;28;45572;-63
2022/03/18 02:15:28;;;;;;;;;24.75;22.50;;;;;9.82;55.08;103207.56;5050138;28;45574;-61
2022/03/18 02:17:53;;;;;;;;;32.75;26.00;;;;;9.90;54.80;103218.75;5053600;27;45288;-62
2022/03/18 02:20:19;;;;;;;;;26.50;22.25;;;;;9.87;55.42;103213.22;5049151;28;45577;-64
2022/03/18 02:22:45;;;;;;;;;28.75;24.00;;;;;9.84;55.33;103229.03;5052752;27;45559;-63
2022/03/18 02:25:12;;;;;;;;;31.50;27.75;;;;;9.81;55.03;103218.13;5051202;28;47387;-63
2022/03/18 02:27:39;;;;;;;;;25.00;21.25;;;;;9.81;55.11;103223.47;5056570;28;45642;-61
2022/03/18 02:30:06;;;;;;;;;33.50;26.25;;;;;9.80;55.04;103219.91;5048400;28;45429;-63
2022/03/18 02:32:32;;;;;;;;;32.75;28.50;;;;;9.76;55.48;103217.81;5053263;28;45504;-63
2022/03/18 02:34:58;;;;;;;;;24.00;22.50;;;;;9.73;55.11;103214.94;5063910;27;46248;-64
2022/03/18 02:37:23;;;;;;;;;27.25;22.50;;;;;9.73;55.12;103201.59;5055379;28;45600;-63
2022/03/18 02:39:48;;;;;;;;;27.50;20.25;;;;;9.31;54.67;103117.75;5063972;28;45578;-64
2022/03/18 02:42:15;;;;;;;;;26.75;19.25;;;;;9.76;55.00;103199.13;5056382;28;45509;-63
2022/03/18 02:44:40;;;;;;;;;32.00;26.00;;;;;9.73;55.85;103193.56;5059980;28;45471;-62
2022/03/18 02:47:06;;;;;;;;;24.50;23.25;;;;;9.63;55.63;103196.44;5055024;28;45398;-64
2022/03/18 02:49:31;;;;;;;;;38.75;26.75;;;;;9.64;55.47;103217.88;5057192;28;45346;-65
2022/03/18 02:51:57;;;;;;;;;29.75;23.25;;;;;9.63;55.41;103208.03;5059529;27;45619;-64
2022/03/18 02:54:22;;;;;;;;;32.25;26.50;;;;;9.60;55.81;103202.47;5052667;27;46081;-65
2022/03/18 02:56:48;;;;;;;;;29.25;23.25;;;;;9.45;55.64;103180.06;5058070;27;45753;-65
2022/03/18 02:59:13;;;;;;;;;28.50;24.00;;;;;9.62;55.40;103203.53;5055634;28;45465;-64
2022/03/18 03:01:39;;;;;;;;;34.75;24.00;;;;;9.62;55.40;103211.53;5057262;27;45464;-63
2022/03/18 03:04:05;;;;;;;;;30.25;28.25;;;;;9.43;56.03;103173.69;5055860;28;45055;-62
2022/03/18 03:09:16;;;;;;;;;31.50;28.00;;;;;9.47;55.57;103187.38;5058928;28;45509;-63
2022/03/18 03:11:43;;;;;;;;;41.75;29.75;;;;;9.64;56.24;103211.63;5054946;27;45519;-64
2022/03/18 03:14:08;;;;;;;;;36.75;28.75;;;;;9.48;56.52;103189.19;5059733;28;46201;-61
2022/03/18 03:16:34;;;;;;;;;33.75;30.25;;;;;9.59;56.33;103216.66;5053405;27;45461;-64
2022/03/18 03:19:03;;;;;;;;;39.50;34.25;;;;;9.54;55.95;103213.66;5060982;28;45747;-63
2022/03/18 03:21:29;;;;;;;;;39.25;33.25;;;;;9.62;55.58;103232.88;5053927;27;45481;-63
2022/03/18 03:23:55;;;;;;;;;42.75;32.25;;;;;9.64;55.26;103230.31;5057942;28;46066;-63
2022/03/18 03:26:20;;;;;;;;;42.00;33.00;;;;;9.22;56.20;103166.97;5051718;27;45450;-62
2022/03/18 03:28:45;;;;;;;;;36.25;30.25;;;;;9.62;56.01;103239.94;5054425;28;45651;-62
2022/03/18 03:31:11;;;;;;;;;35.50;32.25;;;;;9.42;55.13;103210.13;5056333;27;45554;-65
2022/03/18 03:33:37;;;;;;;;;39.50;34.50;;;;;9.17;56.04;103163.03;5055113;28;46736;-63
2022/03/18 03:36:03;;;;;;;;;39.00;32.75;;;;;9.43;55.71;103221.72;5056882;27;45648;-63
2022/03/18 03:38:28;;;;;;;;;39.25;31.00;;;;;9.49;55.84;103238.19;5067964;27;45550;-64
2022/03/18 03:40:54;;;;;;;;;36.25;31.25;;;;;9.58;56.33;103246.81;5058254;28;45556;-64
2022/03/18 03:43:19;;;;;;;;;36.00;31.50;;;;;9.55;55.97;103235.91;5066236;28;46006;-62
2022/03/18 03:45:44;;;;;;;;;42.00;33.25;;;;;9.47;56.22;103227.38;5062495;28;45526;-60
2022/03/18 03:50:45;;;;;;;;;38.00;31.25;;;;;9.41;55.55;103238.53;6065266;22;46131;-64
2022/03/18 03:53:10;;;;;;;;;26.75;24.25;;;;;9.26;55.69;103205.44;5021755;28;45614;-61
2022/03/18 03:55:39;;;;;;;;;34.00;29.75;;;;;9.41;56.01;103241.19;5024689;28;45513;-63
2022/03/18 03:58:06;;;;;;;;;37.25;29.25;;;;;9.43;55.51;103235.97;5023184;28;45403;-62
2022/03/18 04:00:33;;;;;;;;;31.50;28.75;;;;;9.41;55.96;103243.88;5023549;28;45484;-63
2022/03/18 04:02:58;;;;;;;;;38.50;25.00;;;;;9.35;55.62;103240.75;5024597;28;45584;-62
2022/03/18 04:05:23;;;;;;;;;26.75;20.25;;;;;9.32;56.32;103239.63;5023067;28;46840;-62
2022/03/18 04:07:49;;;;;;;;;23.50;22.75;;;;;9.37;56.09;103262.22;5028570;28;45457;-63
2022/03/18 04:10:14;;;;;;;;;30.75;29.00;;;;;9.39;55.34;103257.94;5029894;28;45753;-61
2022/03/18 04:12:40;;;;;;;;;27.75;24.50;;;;;9.39;55.16;103255.28;5027017;28;46389;-63
2022/03/18 04:15:08;;;;;;;;;30.50;24.00;;;;;9.38;55.19;103253.41;5028536;28;45449;-61
2022/03/18 04:17:45;;;;;;;;;30.00;23.50;;;;;9.34;55.36;103257.59;5015378;28;45648;-64
2022/03/18 04:20:13;;;;;;;;;26.00;23.75;;;;;9.36;56.17;103249.72;5028620;28;46046;-60
2022/03/18 04:22:39;;;;;;;;;32.00;28.75;;;;;9.25;55.42;103240.00;5029252;28;46087;-63
2022/03/18 04:25:04;;;;;;;;;34.75;28.25;;;;;9.33;55.42;103261.06;5028840;28;46492;-62
2022/03/18 04:27:30;;;;;;;;;28.25;25.50;;;;;9.23;56.23;103247.91;5024419;28;45395;-64
2022/03/18 04:29:55;;;;;;;;;29.25;25.00;;;;;9.21;55.54;103255.78;5026196;28;45443;-63
2022/03/18 04:32:21;;;;;;;;;28.50;24.50;;;;;9.17;55.90;103259.06;5023035;28;55295;-62
2022/03/18 04:34:46;;;;;;;;;27.75;22.25;;;;;9.30;55.70;103275.94;5024143;28;45595;-62
2022/03/18 04:37:11;;;;;;;;;26.00;24.50;;;;;9.01;55.79;103235.69;5023313;28;45669;-61
2022/03/18 04:39:37;;;;;;;;;29.25;26.50;;;;;9.23;55.20;103287.91;5022371;28;45488;-61
2022/03/18 04:42:02;;;;;;;;;26.75;21.00;;;;;9.22;55.49;103288.72;5023472;28;45652;-61
2022/03/18 04:44:28;;;;;;;;;26.25;22.00;;;;;9.10;54.94;103261.16;5028528;28;45555;-63
2022/03/18 04:46:53;;;;;;;;;29.75;22.25;;;;;9.15;54.89;103278.41;5023221;28;45587;-61
2022/03/18 04:49:18;;;;;;;;;30.75;25.00;;;;;9.26;54.89;103295.22;5028342;28;45758;-61
2022/03/18 04:51:44;;;;;;;;;29.00;21.50;;;;;9.02;55.09;103264.22;5025426;28;45481;-62
2022/03/18 04:54:09;;;;;;;;;25.25;23.75;;;;;9.15;55.14;103291.75;5029509;28;45582;-63
2022/03/18 04:59:19;;;;;;;;;25.25;23.00;;;;;9.21;54.69;103286.88;5023608;28;45528;-63
2022/03/18 05:01:45;;;;;;;;;21.50;20.25;;;;;9.22;54.94;103292.31;5024330;28;45482;-63
2022/03/18 05:04:11;;;;;;;;;26.75;22.00;;;;;9.14;55.00;103290.84;5028188;28;45422;-64
2022/03/18 05:06:37;;;;;;;;;27.25;21.00;;;;;9.19;54.20;103292.09;5035181;28;45421;-61
2022/03/18 05:09:02;;;;;;;;;25.50;20.25;;;;;8.98;55.54;103277.19;5032085;28;45721;-62
2022/03/18 05:11:28;;;;;;;;;33.75;24.00;;;;;9.07;54.48;103292.94;5031480;28;46322;-61
2022/03/18 05:13:54;;;;;;;;;20.75;15.75;;;;;9.10;54.17;103304.75;5030636;28;45499;-62
2022/03/18 05:16:20;;;;;;;;;28.00;22.75;;;;;9.14;54.46;103308.56;5027839;28;45324;-62
2022/03/18 05:18:45;;;;;;;;;31.25;27.00;;;;;9.12;53.94;103326.19;5013989;28;45600;-63
2022/03/18 05:21:10;;;;;;;;;24.25;22.00;;;;;9.06;53.35;103307.06;5028005;28;47178;-63
2022/03/18 05:23:35;;;;;;;;;27.00;21.00;;;;;8.92;54.57;103290.97;5026889;28;45375;-63
2022/03/18 05:26:01;;;;;;;;;19.75;19.75;;;;;9.08;54.63;103329.47;5025209;28;45359;-61
2022/03/18 05:28:26;;;;;;;;;32.25;21.25;;;;;9.07;54.88;103322.28;5026253;28;45307;-62
2022/03/18 05:30:52;;;;;;;;;25.00;19.75;;;;;9.07;54.59;103323.19;5024484;28;46289;-63
2022/03/18 05:33:19;;;;;;;;;24.50;21.75;;;;;9.04;54.04;103326.56;5024194;28;45420;-63
2022/03/18 05:35:44;;;;;;;;;23.25;21.25;;;;;8.86;54.21;103309.22;5025783;28;45332;-64
2022/03/18 05:38:10;;;;;;;;;24.25;20.00;;;;;8.97;53.65;103339.31;5027621;28;45594;-62
2022/03/18 05:40:35;;;;;;;;;22.00;17.50;;;;;8.77;54.33;103296.09;5027137;28;46036;-63
2022/03/18 05:43:00;;;;;;;;;22.00;20.50;;;;;8.83;53.49;103322.31;5025152;28;45500;-60
2022/03/18 05:45:26;;;;;;;;;21.50;19.75;;;;;8.97;53.65;103332.25;5026155;28;45433;-62
2022/03/18 05:47:51;;;;;;;;;24.00;20.75;;;;;8.95;53.39;103336.53;5028747;28;45575;-63
2022/03/18 05:50:17;;;;;;;;;20.75;15.50;;;;;8.95;53.83;103343.63;5027780;28;46564;-63
2022/03/18 05:52:45;;;;;;;;;19.50;19.50;;;;;8.92;53.46;103335.38;5028537;28;45596;-62
2022/03/18 05:55:11;;;;;;;;;22.25;21.00;;;;;8.85;53.82;103331.34;5022460;28;45426;-63
2022/03/18 05:57:37;;;;;;;;;19.25;13.50;;;;;8.82;53.34;103336.44;5028243;28;45392;-63
2022/03/18 06:00:04;;;;;;;;;22.25;20.75;;;;;8.81;53.74;103337.22;5021300;28;45335;-63
2022/03/18 06:02:29;;;;;;;;;20.50;17.00;;;;;8.73;53.83;103322.41;5025164;28;45487;-63
2022/03/18 06:04:55;;;;;;;;;24.50;23.00;;;;;8.67;53.21;103329.13;5033010;28;45372;-64
2022/03/18 06:07:20;;;;;;;;;23.50;21.50;;;;;8.70;54.07;103346.19;5030813;28;45619;-63
2022/03/18 06:12:30;;;;;;;;;20.50;15.50;;;;;8.73;54.34;103352.66;5029359;28;45462;-62
2022/03/18 06:14:55;;;;;;;;;20.00;19.25;;;;;8.72;52.86;103356.13;5030782;28;45685;-64
2022/03/18 06:17:21;;;;;;;;;23.75;18.50;;;;;8.73;53.58;103343.72;5028119;28;45497;-63
2022/03/18 06:19:46;;;;;;;;;27.25;21.50;;;;;8.59;53.34;103316.03;5027083;28;46293;-63
2022/03/18 06:22:11;;;;;;;;;26.50;21.75;;;;;8.72;53.39;103352.56;5025641;28;45403;-62
2022/03/18 06:24:37;;;;;;;;;22.00;21.50;;;;;8.39;53.84;103288.78;5025453;28;45529;-62
2022/03/18 06:27:03;;;;;;;;;29.25;24.75;;;;;8.58;53.02;103327.50;5024914;28;45625;-63
2022/03/18 06:29:29;;;;;;;;;21.00;19.25;;;;;8.67;53.89;103354.88;5027190;28;45475;-63
2022/03/18 06:31:55;;;;;;;;;47.00;36.75;;;;;8.59;53.68;103356.00;5023623;28;45852;-63
2022/03/18 06:34:21;;;;;;;;;28.00;23.00;;;;;8.58;53.17;103365.75;5025703;28;45792;-61
2022/03/18 06:36:47;;;;;;;;;26.00;21.50;;;;;8.57;54.37;103370.97;5028663;28;45299;-62
2022/03/18 06:39:14;;;;;;;;;18.00;16.50;;;;;8.59;53.82;103372.00;5015739;28;48440;-64
2022/03/18 06:41:40;;;;;;;;;19.75;18.75;;;;;8.56;53.93;103369.09;5021426;28;45514;-62
2022/03/18 06:44:08;;;;;;;;;20.50;20.50;;;;;8.43;53.35;103356.56;5026647;28;45694;-62
2022/03/18 06:46:34;;;;;;;;;25.00;20.00;;;;;8.42;53.39;103365.34;5024844;28;45571;-61
2022/03/18 06:49:00;;;;;;;;;30.50;25.25;;;;;8.33;53.63;103346.91;5027248;28;46142;-64
2022/03/18 06:51:25;;;;;;;;;24.75;23.00;;;;;8.45;54.63;103358.56;5031434;28;45443;-65
2022/03/18 06:53:51;;;;;;;;;27.75;22.00;;;;;8.40;53.76;103358.97;5029816;28;45500;-62
2022/03/18 06:56:16;;;;;;;;;23.75;20.25;;;;;8.39;53.32;103362.44;5019388;28;45592;-63
2022/03/18 06:58:43;;;;;;;;;22.25;18.75;;;;;8.44;54.86;103358.44;5028426;28;45646;-62
2022/03/18 07:01:09;;;;;;;;;28.00;22.75;;;;;8.49;54.31;103357.97;5036764;28;45903;-62
2022/03/18 07:03:35;;;;;;;;;27.25;25.50;;;;;8.55;53.72;103351.28;5035825;28;45414;-62
2022/03/18 07:06:00;;;;;;;;;19.00;17.25;;;;;8.12;53.64;103274.28;5027265;28;45454;-63
2022/03/18 07:08:25;;;;;;;;;28.25;27.25;;;;;8.65;53.54;103353.81;5030986;28;45002;-62
2022/03/18 07:10:52;;;;;;;;;33.00;24.75;;;;;8.73;52.97;103363.34;5033549;28;48346;-61
2022/03/18 07:13:17;;;;;;;;;29.00;25.75;;;;;8.74;53.86;103361.59;5040212;28;45433;-63
2022/03/18 07:15:42;;;;;;;;;25.50;23.75;;;;;8.75;52.82;103363.44;5027930;28;45333;-63
2022/03/18 07:18:08;;;;;;;;;31.00;20.75;;;;;8.64;52.34;103331.56;5037709;28;45543;-63
2022/03/18 07:20:39;;;;;;;;;32.75;28.00;;;;;8.78;52.37;103358.34;5035867;28;45389;-61
2022/03/18 07:23:14;;;;;;;;;31.25;26.00;;;;;8.79;52.76;103354.84;5022850;28;45557;-65
2022/03/18 07:25:45;;;;;;;;;27.25;19.50;;;;;8.85;53.01;103350.00;5027858;28;45319;-63
2022/03/18 07:28:12;;;;;;;;;27.50;27.00;;;;;8.93;52.68;103364.84;5018852;28;47437;-62
2022/03/18 07:30:39;;;;;;;;;30.00;27.25;;;;;8.97;51.82;103353.56;5022036;28;45240;-64
2022/03/18 07:33:05;;;;;;;;;37.00;26.75;;;;;8.59;52.62;103292.97;5018595;28;45408;-66
2022/03/18 07:35:32;;;;;;;;;28.25;25.25;;;;;9.06;51.17;103356.03;5016224;28;45566;-63
2022/03/18 07:37:57;;;;;;;;;34.25;21.50;;;;;9.03;51.93;103345.13;5015230;28;45569;-62
2022/03/18 07:40:24;;;;;;;;;30.00;25.75;;;;;8.60;52.04;103262.88;5015872;28;45421;-63
2022/03/18 07:42:52;;;;;;;;;29.50;22.25;;;;;9.11;51.36;103349.28;5021584;28;45407;-63
2022/03/18 07:45:20;;;;;;;;;36.25;26.50;;;;;9.17;52.21;103349.75;5015948;28;45558;-63
2022/03/18 07:47:49;;;;;;;;;24.25;23.75;;;;;9.15;51.06;103342.44;5015108;28;46218;-63
2022/03/18 07:50:19;;;;;;;;;44.25;34.50;;;;;9.28;51.04;103360.28;5015696;28;45490;-64
2022/03/18 07:52:45;;;;;;;;;28.50;27.75;;;;;9.35;50.67;103362.56;5014400;28;45449;-62
2022/03/18 07:55:10;;;;;;;;;28.50;22.25;;;;;9.39;50.50;103360.25;5015412;28;45375;-61
2022/03/18 07:57:36;;;;;;;;;31.25;26.00;;;;;9.45;50.90;103364.16;5014924;28;50281;-63
2022/03/18 08:00:02;;;;;;;;;25.00;23.00;;;;;9.51;51.19;103357.53;5022027;28;45486;-64
2022/03/18 08:02:27;;;;;;;;;23.25;19.25;;;;;9.52;50.33;103356.72;5015799;28;45486;-65
2022/03/18 08:04:53;;;;;;;;;27.75;22.00;;;;;9.67;49.53;103362.25;5016095;28;45476;-64
2022/03/18 08:07:19;;;;;;;;;46.50;38.25;;;;;9.53;50.05;103341.63;5015802;28;46264;-65
2022/03/18 08:09:44;;;;;;;;;19.50;18.00;;;;;9.64;50.29;103332.66;5015751;28;45360;-62
2022/03/18 08:12:10;;;;;;;;;20.25;19.25;;;;;9.83;50.01;103350.91;5015533;28;45449;-64
2022/03/18 08:14:36;;;;;;;;;30.50;24.00;;;;;9.66;49.48;103319.44;5026844;28;45282;-65
2022/03/18 08:17:01;;;;;;;;;21.75;21.25;;;;;9.94;49.82;103367.72;5034322;28;45348;-64
2022/03/18 08:19:27;;;;;;;;;25.50;21.75;;;;;9.95;48.63;103364.25;5034683;28;45521;-65
2022/03/18 08:21:52;;;;;;;;;27.00;18.75;;;;;10.03;49.28;103364.75;5034930;28;45490;-63
2022/03/18 08:24:18;;;;;;;;;24.25;21.50;;;;;10.08;48.86;103369.63;5035178;28;45458;-62
2022/03/18 08:26:43;;;;;;;;;21.50;18.25;;;;;10.02;47.92;103347.81;5034337;28;46051;-62
2022/03/18 08:29:09;;;;;;;;;29.75;22.50;;;;;10.19;47.43;103372.13;5034581;28;45295;-61
2022/03/18 08:31:35;;;;;;;;;24.50;19.75;;;;;10.28;47.91;103379.03;5034544;28;45466;-65
2022/03/18 08:34:00;;;;;;;;;26.25;20.50;;;;;10.35;46.53;103379.50;5035033;28;45560;-64
2022/03/18 08:36:25;;;;;;;;;26.50;16.75;;;;;10.36;47.60;103382.28;5034265;28;45442;-61
2022/03/18 08:38:51;;;;;;;;;23.75;23.00;;;;;10.42;47.08;103365.75;5034699;28;45987;-64
2022/03/18 08:41:16;;;;;;;;;21.00;16.25;;;;;10.52;46.94;103373.56;5035127;28;45324;-62
2022/03/18 08:43:42;;;;;;;;;26.75;23.25;;;;;10.61;46.43;103374.19;5035622;28;45339;-63
2022/03/18 08:46:07;;;;;;;;;19.25;17.25;;;;;10.51;46.43;103337.91;5034295;28;50124;-64
2022/03/18 08:48:33;;;;;;;;;20.50;17.00;;;;;10.29;46.10;103289.09;5034619;28;45394;-65
2022/03/18 08:50:58;;;;;;;;;25.75;21.50;;;;;10.79;45.65;103369.19;5034395;28;45467;-64
2022/03/18 08:53:23;;;;;;;;;23.75;20.50;;;;;10.81;45.69;103350.56;5034558;28;45463;-63
2022/03/18 08:55:49;;;;;;;;;25.00;19.25;;;;;10.82;45.15;103345.31;5033703;28;47280;-63
2022/03/18 08:58:15;;;;;;;;;23.25;20.75;;;;;10.94;45.16;103371.00;5033950;28;45335;-63
2022/03/18 09:00:41;;;;;;;;;22.50;19.50;;;;;10.96;44.08;103366.72;5034131;28;45506;-64
2022/03/18 09:03:06;;;;;;;;;23.75;18.75;;;;;11.09;45.12;103374.75;5034182;28;45545;-63
2022/03/18 09:05:32;;;;;;;;;22.75;15.50;;;;;11.13;43.60;103375.84;5033686;28;45354;-65
2022/03/18 09:07:57;;;;;;;;;35.00;26.75;;;;;10.98;44.53;103349.00;5033609;28;45308;-63
2022/03/18 09:10:24;;;;;;;;;31.25;28.00;;;;;11.31;43.91;103376.16;5033177;28;45407;-63
2022/03/18 09:12:55;;;;;;;;;20.00;19.00;;;;;11.40;43.62;103379.41;5033791;28;45596;-65
2022/03/18 09:15:21;;;;;;;;;21.75;14.00;;;;;11.50;43.39;103372.91;5033759;28;45952;-64
2022/03/18 09:17:47;;;;;;;;;21.00;19.00;;;;;11.58;43.37;103369.91;5033426;28;45271;-64
2022/03/18 09:20:13;;;;;;;;;19.25;14.75;;;;;11.69;43.02;103367.00;5033773;28;45259;-62
2022/03/18 09:22:39;;;;;;;;;23.00;18.00;;;;;11.70;42.42;103343.00;5033752;28;45435;-65
2022/03/18 09:25:05;;;;;;;;;18.50;17.25;;;;;11.89;42.21;103374.53;5033439;28;45469;-63
2022/03/18 09:27:32;;;;;;;;;15.50;14.00;;;;;11.85;40.60;103359.09;5033163;28;45445;-64
2022/03/18 09:30:00;;;;;;;;;19.25;18.00;;;;;12.02;41.10;103381.63;5033597;28;45426;-63
2022/03/18 09:32:27;;;;;;;;;14.00;14.00;;;;;12.09;40.09;103374.91;5033445;28;45422;-64
2022/03/18 09:34:52;;;;;;;;;21.25;14.50;;;;;12.23;40.20;103373.09;5033494;28;45378;-66
2022/03/18 09:37:18;;;;;;;;;14.50;14.50;;;;;12.31;39.74;103375.41;5033359;28;45285;-64
2022/03/18 09:39:43;;;;;;;;;28.75;20.25;;;;;12.41;38.28;103363.50;5033515;28;45546;-66
2022/03/18 09:42:09;;;;;;;;;14.25;12.25;;;;;12.52;38.74;103362.38;5033607;28;45492;-66
2022/03/18 09:44:36;;;;;;;;;18.50;16.75;;;;;12.65;38.45;103363.13;5032838;28;45987;-66
2022/03/18 09:47:03;;;;;;;;;20.75;18.75;;;;;12.34;38.25;103276.41;5033045;28;45543;-63
2022/03/18 09:49:29;;;;;;;;;20.50;19.75;;;;;12.95;37.17;103363.09;5033602;28;45445;-63
2022/03/18 09:51:55;;;;;;;;;23.50;22.00;;;;;13.01;35.44;103340.22;5033177;28;45572;-64
2022/03/18 09:54:20;;;;;;;;;17.00;13.50;;;;;13.60;35.84;103360.59;5033017;28;45359;-65
2022/03/18 09:56:48;;;;;;;;;12.50;10.75;;;;;14.45;32.63;103349.03;5015122;28;45404;-66
2022/03/18 09:59:14;;;;;;;;;13.75;11.50;;;;;15.44;31.90;103346.84;5033459;28;45579;-64
2022/03/18 10:01:41;;;;;;;;;13.25;13.25;;;;;16.17;29.13;103350.22;5020987;28;45450;-65
2022/03/18 10:04:12;;;;;;;;;16.50;14.00;;;;;16.08;29.44;103302.16;5013737;28;46994;-66
2022/03/18 10:06:41;;;;;;;;;14.75;14.25;;;;;16.50;30.26;103352.56;5026718;28;45383;-65
2022/03/18 10:09:06;;;;;;;;;18.75;14.50;;;;;16.23;28.00;103347.78;5013893;28;45312;-66
2022/03/18 10:11:36;;;;;;;;;14.50;14.50;;;;;16.03;29.38;103354.97;5013934;28;45463;-66
2022/03/18 10:14:06;;;;;;;;;16.25;14.25;;;;;15.86;30.15;103358.69;5026625;28;46180;-64
2022/03/18 10:16:41;;;;;;;;;16.00;13.75;;;;;15.71;30.52;103361.56;5019900;28;45747;-64
2022/03/18 10:19:12;;;;;;;;;15.00;14.75;;;;;15.54;29.18;103356.28;5013944;28;45387;-64
2022/03/18 10:22:05;;;;;;;;;12.00;11.25;;;;;15.39;29.50;103363.63;5013304;28;45731;-66
2022/03/18 10:24:34;;;;;;;;;10.00;10.00;;;;;15.30;30.22;103358.72;5035989;28;46067;-65
2022/03/18 10:27:12;;;;;;;;;21.25;18.00;;;;;15.25;30.70;103355.78;5036177;28;45337;-65
2022/03/18 10:29:44;;;;;;;;;17.50;14.00;;;;;15.25;30.91;103353.09;5018674;28;45634;-64
2022/03/18 10:32:11;;;;;;;;;19.25;16.25;;;;;15.24;30.03;103343.16;5036330;28;45503;-63
2022/03/18 10:37:25;;;;;;;;;12.25;12.25;;;;;15.17;30.05;103341.03;5036193;28;45412;-65
2022/03/18 10:40:00;;;;;;;;;13.50;12.00;;;;;15.06;30.42;103332.44;5036348;28;45670;-64
2022/03/18 10:42:26;;;;;;;;;18.75;16.50;;;;;15.04;30.58;103326.03;5036918;28;45552;-67
2022/03/18 10:44:56;;;;;;;;;23.00;20.00;;;;;15.06;30.75;103329.75;5036203;28;45414;-63
2022/03/18 10:47:38;;;;;;;;;16.25;16.25;;;;;15.15;30.73;103329.25;5036620;28;45359;-65
2022/03/18 10:50:09;;;;;;;;;14.25;13.00;;;;;15.22;30.23;103330.47;5036306;28;45433;-63
2022/03/18 10:52:36;;;;;;;;;20.00;12.75;;;;;15.09;29.49;103305.63;5035869;28;45544;-64
2022/03/18 10:55:22;;;;;;;;;20.25;18.25;;;;;15.27;29.44;103321.75;5035717;28;46027;-63
2022/03/18 10:58:00;;;;;;;;;12.75;12.75;;;;;15.29;28.85;103329.91;5035277;28;45342;-63
2022/03/18 11:00:31;;;;;;;;;23.75;16.00;;;;;14.92;28.39;103260.84;5035612;28;45446;-63
2022/03/18 11:02:58;;;;;;;;;14.00;12.75;;;;;15.14;28.84;103313.03;5035558;28;45474;-64
2022/03/18 11:05:25;;;;;;;;;14.50;11.50;;;;;15.11;28.61;103308.41;5034891;28;45453;-64
2022/03/18 11:07:53;;;;;;;;;12.50;10.25;;;;;15.26;28.78;103319.00;5017479;28;45423;-67
2022/03/18 11:13:05;;;;;;;;;13.25;13.25;;;;;15.29;27.87;103321.84;5024048;28;45444;-62
2022/03/18 11:15:33;;;;;;;;;15.50;13.25;;;;;15.37;27.87;103327.59;5016272;28;45439;-62
2022/03/18 11:18:03;;;;;;;;;15.25;12.50;;;;;15.42;27.46;103321.56;5016311;28;45584;-63
2022/03/18 11:20:29;;;;;;;;;8.25;7.75;;;;;15.47;26.98;103313.72;5016021;28;45429;-65
2022/03/18 11:22:55;;;;;;;;;12.50;11.00;;;;;15.51;26.59;103314.78;5016483;28;45497;-63
2022/03/18 11:25:22;;;;;;;;;26.75;26.00;;;;;15.55;26.46;103317.69;5016224;28;47154;-63
2022/03/18 11:27:48;;;;;;;;;12.50;11.50;;;;;15.54;25.64;103298.75;5015739;28;45415;-66
2022/03/18 11:30:25;;;;;;;;;12.00;12.00;;;;;15.56;25.95;103316.84;5015844;28;45533;-65
2022/03/18 11:33:06;;;;;;;;;16.50;13.25;;;;;15.53;26.12;103318.50;5015564;28;45571;-65